FGN53JO UZ1Q-UZTT
Flight info
| Callsign | FGN53JO |
|---|---|
| Flight time | N/A |
| Altitude | 17000 |
| Route | ILGOZ DCT KUFIM DCT LIMGU DCT INBOG |
| Aircraft | A20N/M-SDE2E3FGHIRWXY/LB1 |
Departure
| Time | N/A |
|---|---|
| Airport | UZ1Q |
Arrival
| Time | 2026-05-05 18:22 |
|---|---|
| Airport | Tashkent International Airport (UZTT) |
| Time | Latitude | Longitude | Altitude | Speed | Heading |
|---|---|---|---|---|---|
| 2026-05-05 17:37 | 40.25353 | 67.91597 | 1062 ft | 0 kts | 134° |
| 2026-05-05 17:53 | 40.25353 | 67.91596 | 1058 ft | 2 kts | 134° |
| 2026-05-05 17:53 | 40.25366 | 67.91578 | 1063 ft | 2 kts | 137° |
| 2026-05-05 17:53 | 40.25374 | 67.91569 | 1064 ft | 2 kts | 150° |
| 2026-05-05 17:54 | 40.25383 | 67.91563 | 1062 ft | 2 kts | 174° |
| 2026-05-05 17:54 | 40.25394 | 67.91564 | 1062 ft | 2 kts | 209° |
| 2026-05-05 17:54 | 40.25405 | 67.91574 | 1062 ft | 3 kts | 216° |
| 2026-05-05 17:54 | 40.25415 | 67.91584 | 1062 ft | 1 kts | 224° |
| 2026-05-05 17:55 | 40.25410 | 67.91577 | 1061 ft | 1 kts | 224° |
| 2026-05-05 17:55 | 40.25402 | 67.91567 | 1062 ft | 3 kts | 224° |
| 2026-05-05 17:55 | 40.25367 | 67.91522 | 1061 ft | 0 kts | 225° |
| 2026-05-05 17:56 | 40.25363 | 67.91516 | 1061 ft | 3 kts | 225° |
| 2026-05-05 17:56 | 40.25338 | 67.91485 | 1061 ft | 7 kts | 225° |
| 2026-05-05 17:57 | 40.25294 | 67.91429 | 1061 ft | 11 kts | 224° |
| 2026-05-05 17:57 | 40.25232 | 67.91350 | 1063 ft | 12 kts | 224° |
| 2026-05-05 17:57 | 40.25183 | 67.91254 | 1061 ft | 14 kts | 257° |
| 2026-05-05 17:57 | 40.25184 | 67.91123 | 1062 ft | 16 kts | 270° |
| 2026-05-05 17:58 | 40.25167 | 67.90975 | 1062 ft | 18 kts | 238° |
| 2026-05-05 17:58 | 40.25075 | 67.90852 | 1062 ft | 20 kts | 224° |
| 2026-05-05 17:58 | 40.24966 | 67.90715 | 1061 ft | 23 kts | 224° |
| 2026-05-05 17:58 | 40.24847 | 67.90564 | 1063 ft | 24 kts | 225° |
| 2026-05-05 17:59 | 40.24722 | 67.90403 | 1065 ft | 26 kts | 224° |
| 2026-05-05 17:59 | 40.24590 | 67.90236 | 1066 ft | 27 kts | 225° |
| 2026-05-05 17:59 | 40.24453 | 67.90056 | 1065 ft | 29 kts | 225° |
| 2026-05-05 17:59 | 40.24341 | 67.89906 | 1064 ft | 8 kts | 264° |
| 2026-05-05 18:00 | 40.24331 | 67.89831 | 1063 ft | 6 kts | 216° |
| 2026-05-05 18:00 | 40.24300 | 67.89852 | 1063 ft | 0 kts | 120° |
| 2026-05-05 18:00 | 40.24304 | 67.89861 | 1063 ft | 5 kts | 67° |
| 2026-05-05 18:00 | 40.24375 | 67.89959 | 1063 ft | 23 kts | 43° |
| 2026-05-05 18:01 | 40.24731 | 67.90410 | 1064 ft | 117 kts | 44° |
| 2026-05-05 18:01 | 40.25447 | 67.91317 | 1455 ft | 151 kts | 44° |
| 2026-05-05 18:01 | 40.26188 | 67.92279 | 2444 ft | 151 kts | 50° |
| 2026-05-05 18:01 | 40.26872 | 67.93381 | 3325 ft | 160 kts | 52° |
| 2026-05-05 18:02 | 40.27584 | 67.94518 | 4168 ft | 164 kts | 52° |
| 2026-05-05 18:02 | 40.28338 | 67.95693 | 4871 ft | 172 kts | 51° |
| 2026-05-05 18:02 | 40.29139 | 67.96944 | 5455 ft | 189 kts | 52° |
| 2026-05-05 18:02 | 40.30022 | 67.98371 | 5888 ft | 216 kts | 52° |
| 2026-05-05 18:03 | 40.31015 | 67.99992 | 6488 ft | 240 kts | 52° |
| 2026-05-05 18:03 | 40.32115 | 68.01786 | 7081 ft | 264 kts | 51° |
| 2026-05-05 18:03 | 40.33397 | 68.03651 | 7672 ft | 286 kts | 42° |
| 2026-05-05 18:03 | 40.34924 | 68.05383 | 8589 ft | 294 kts | 40° |
| 2026-05-05 18:04 | 40.36483 | 68.07161 | 9575 ft | 300 kts | 40° |
| 2026-05-05 18:04 | 40.38058 | 68.08969 | 10397 ft | 312 kts | 40° |
| 2026-05-05 18:04 | 40.39749 | 68.10912 | 10869 ft | 335 kts | 40° |
| 2026-05-05 18:04 | 40.41553 | 68.12988 | 11362 ft | 353 kts | 40° |
| 2026-05-05 18:05 | 40.43409 | 68.15126 | 12277 ft | 356 kts | 40° |
| 2026-05-05 18:05 | 40.45270 | 68.17273 | 13273 ft | 357 kts | 39° |
| 2026-05-05 18:05 | 40.47149 | 68.19440 | 14180 ft | 361 kts | 39° |
| 2026-05-05 18:05 | 40.49052 | 68.21636 | 14702 ft | 367 kts | 39° |
| 2026-05-05 18:06 | 40.50974 | 68.23854 | 14922 ft | 368 kts | 39° |
| 2026-05-05 18:06 | 40.51625 | 68.24606 | 14968 ft | 368 kts | 39° |
| 2026-05-05 18:06 | 40.54822 | 68.28304 | 15016 ft | 369 kts | 39° |
| 2026-05-05 18:06 | 40.56754 | 68.30539 | 14998 ft | 370 kts | 39° |
| 2026-05-05 18:07 | 40.58687 | 68.32778 | 15014 ft | 369 kts | 39° |
| 2026-05-05 18:07 | 40.60609 | 68.35007 | 15018 ft | 368 kts | 39° |
| 2026-05-05 18:07 | 40.62532 | 68.37238 | 15018 ft | 368 kts | 39° |
| 2026-05-05 18:07 | 40.64456 | 68.39472 | 15018 ft | 368 kts | 39° |
| 2026-05-05 18:08 | 40.66380 | 68.41707 | 15018 ft | 368 kts | 39° |
| 2026-05-05 18:08 | 40.67654 | 68.43189 | 15018 ft | 369 kts | 40° |
| 2026-05-05 18:08 | 40.70197 | 68.46147 | 14842 ft | 368 kts | 40° |
| 2026-05-05 18:08 | 40.72124 | 68.48390 | 14296 ft | 371 kts | 40° |
| 2026-05-05 18:09 | 40.74072 | 68.50658 | 13394 ft | 378 kts | 40° |
| 2026-05-05 18:09 | 40.75413 | 68.52220 | 12790 ft | 381 kts | 40° |
| 2026-05-05 18:09 | 40.77366 | 68.54499 | 12113 ft | 379 kts | 40° |
| 2026-05-05 18:09 | 40.79326 | 68.56790 | 11579 ft | 373 kts | 40° |
| 2026-05-05 18:10 | 40.81260 | 68.59052 | 11031 ft | 369 kts | 40° |
| 2026-05-05 18:10 | 40.83170 | 68.61287 | 10509 ft | 364 kts | 40° |
| 2026-05-05 18:10 | 40.85032 | 68.63468 | 10319 ft | 349 kts | 40° |
| 2026-05-05 18:10 | 40.86811 | 68.65554 | 10177 ft | 334 kts | 40° |
| 2026-05-05 18:11 | 40.88514 | 68.67552 | 10044 ft | 320 kts | 40° |
| 2026-05-05 18:11 | 40.90151 | 68.69474 | 9828 ft | 310 kts | 40° |
| 2026-05-05 18:11 | 40.91760 | 68.71362 | 9392 ft | 308 kts | 40° |
| 2026-05-05 18:11 | 40.93356 | 68.73235 | 8984 ft | 305 kts | 40° |
| 2026-05-05 18:12 | 40.94919 | 68.75069 | 8646 ft | 300 kts | 40° |
| 2026-05-05 18:12 | 40.96445 | 68.76864 | 8502 ft | 285 kts | 41° |
| 2026-05-05 18:12 | 40.97882 | 68.78558 | 8344 ft | 267 kts | 41° |
| 2026-05-05 18:12 | 40.99242 | 68.80161 | 8217 ft | 257 kts | 41° |
| 2026-05-05 18:13 | 41.00573 | 68.81729 | 7930 ft | 255 kts | 41° |
| 2026-05-05 18:13 | 41.01896 | 68.83288 | 7627 ft | 254 kts | 41° |
| 2026-05-05 18:13 | 41.03273 | 68.84751 | 7313 ft | 253 kts | 32° |
| 2026-05-05 18:13 | 41.04818 | 68.85901 | 6929 ft | 256 kts | 28° |
| 2026-05-05 18:14 | 41.06382 | 68.87033 | 6635 ft | 255 kts | 28° |
| 2026-05-05 18:14 | 41.07911 | 68.88150 | 6358 ft | 253 kts | 29° |
| 2026-05-05 18:14 | 41.09450 | 68.89281 | 6044 ft | 252 kts | 29° |
| 2026-05-05 18:14 | 41.10980 | 68.90408 | 5749 ft | 251 kts | 29° |
| 2026-05-05 18:15 | 41.12534 | 68.91432 | 5459 ft | 249 kts | 19° |
| 2026-05-05 18:15 | 41.14189 | 68.92077 | 5214 ft | 246 kts | 15° |
| 2026-05-05 18:15 | 41.15830 | 68.92680 | 4970 ft | 243 kts | 15° |
| 2026-05-05 18:15 | 41.17456 | 68.93274 | 4737 ft | 241 kts | 15° |
| 2026-05-05 18:16 | 41.19068 | 68.93858 | 4485 ft | 239 kts | 15° |
| 2026-05-05 18:16 | 41.20636 | 68.94519 | 4273 ft | 233 kts | 27° |
| 2026-05-05 18:16 | 41.21839 | 68.95846 | 4167 ft | 221 kts | 57° |
| 2026-05-05 18:16 | 41.22362 | 68.97695 | 4029 ft | 211 kts | 84° |
| 2026-05-05 18:17 | 41.22600 | 68.99668 | 3994 ft | 218 kts | 79° |
| 2026-05-05 18:17 | 41.22907 | 69.01602 | 3964 ft | 215 kts | 81° |
| 2026-05-05 18:17 | 41.23166 | 69.03531 | 3856 ft | 208 kts | 82° |
| 2026-05-05 18:17 | 41.23376 | 69.05378 | 3764 ft | 198 kts | 83° |
| 2026-05-05 18:18 | 41.23569 | 69.07164 | 3588 ft | 193 kts | 83° |
| 2026-05-05 18:18 | 41.23756 | 69.08893 | 3502 ft | 186 kts | 83° |
| 2026-05-05 18:18 | 41.23937 | 69.10571 | 3452 ft | 177 kts | 83° |
| 2026-05-05 18:18 | 41.24102 | 69.12094 | 3346 ft | 159 kts | 83° |
| 2026-05-05 18:19 | 41.24261 | 69.13567 | 3175 ft | 161 kts | 83° |
| 2026-05-05 18:19 | 41.24418 | 69.15015 | 2997 ft | 151 kts | 83° |
| 2026-05-05 18:19 | 41.24561 | 69.16325 | 2809 ft | 136 kts | 83° |
| 2026-05-05 18:19 | 41.24690 | 69.17526 | 2652 ft | 133 kts | 83° |
| 2026-05-05 18:20 | 41.24821 | 69.18729 | 2479 ft | 132 kts | 82° |
| 2026-05-05 18:20 | 41.24950 | 69.19921 | 2307 ft | 129 kts | 82° |
| 2026-05-05 18:20 | 41.25078 | 69.21088 | 2135 ft | 125 kts | 82° |
| 2026-05-05 18:20 | 41.25203 | 69.22242 | 1982 ft | 127 kts | 82° |
| 2026-05-05 18:21 | 41.25327 | 69.23379 | 1805 ft | 123 kts | 81° |
| 2026-05-05 18:21 | 41.25452 | 69.24527 | 1644 ft | 127 kts | 81° |
| 2026-05-05 18:21 | 41.25577 | 69.25663 | 1467 ft | 122 kts | 81° |
| 2026-05-05 18:21 | 41.25696 | 69.26752 | 1408 ft | 111 kts | 84° |
| 2026-05-05 18:22 | 41.25784 | 69.27551 | 1406 ft | 59 kts | 81° |
| 2026-05-05 18:22 | 41.25830 | 69.27959 | 1407 ft | 41 kts | 81° |
| 2026-05-05 18:22 | 41.25864 | 69.28284 | 1407 ft | 34 kts | 83° |
| 2026-05-05 18:22 | 41.25897 | 69.28601 | 1410 ft | 35 kts | 81° |
| 2026-05-05 18:23 | 41.25928 | 69.28852 | 1408 ft | 16 kts | 79° |
| 2026-05-05 18:23 | 41.25993 | 69.28900 | 1406 ft | 11 kts | 333° |
| 2026-05-05 18:23 | 41.26083 | 69.28803 | 1398 ft | 22 kts | 319° |
| 2026-05-05 18:23 | 41.26186 | 69.28655 | 1387 ft | 16 kts | 276° |
| 2026-05-05 18:24 | 41.26188 | 69.28499 | 1388 ft | 19 kts | 273° |
| 2026-05-05 18:24 | 41.26182 | 69.28311 | 1387 ft | 22 kts | 261° |
| 2026-05-05 18:24 | 41.26162 | 69.28105 | 1388 ft | 22 kts | 262° |
| 2026-05-05 18:24 | 41.26139 | 69.27911 | 1388 ft | 20 kts | 260° |
| 2026-05-05 18:25 | 41.26119 | 69.27733 | 1385 ft | 19 kts | 262° |
| 2026-05-05 18:25 | 41.26107 | 69.27621 | 1384 ft | 18 kts | 261° |
| 2026-05-05 18:25 | 41.26083 | 69.27411 | 1386 ft | 16 kts | 262° |
| 2026-05-05 18:25 | 41.26061 | 69.27269 | 1386 ft | 15 kts | 246° |
| 2026-05-05 18:26 | 41.26041 | 69.27166 | 1386 ft | 6 kts | 317° |
| 2026-05-05 18:26 | 41.26080 | 69.27137 | 1385 ft | 3 kts | 335° |
| 2026-05-05 18:26 | 41.26083 | 69.27134 | 1386 ft | 0 kts | 336° |